NEW HOGAN LAKE (NHG)

Elevation: 554' · CALAVERAS R basin · Operator: US Army Corps of Engineers

Provisional data, subject to change.
Query executed Wednesday at 2:35:38   clock

Select a sensor type for a plot of data.
Note: Reservoir Flows are daily averages.

Earlier

Date RES ELE    STORAGE    RES CHG    TOC STO    ABV TOC    OUTFLOW    INFLOW    FNF    PPT INC    TEMP MN    TEMP MX   
 FEET   AF   AF   AF   AF   CFS   CFS   CFS   INCHES   DEG F   DEG F  
06/28/2016 653.68 119166 -444 317100 -197934 216 23 23 0.00 21 40
06/29/2016 653.50 118724 -442 317100 -198376 218 24 24 0.01 19 38
06/30/2016 653.35 118356 -368 317100 -198744 191 36 36 0.00 16 39
07/01/2016 653.21 118013 -343 317100 -199087 171 29 -- 0.01 20 39
07/02/2016 653.01 117524 -489 317100 -199576 220 3 -- 0.00 19 36
07/03/2016 652.81 117036 -488 317100 -200064 233 17 -- 0.00 21 35
07/04/2016 652.63 116597 -439 317100 -200503 210 18 18 0.00 20 34
07/05/2016 652.47 116209 -388 317100 -200891 186 15 15 0.00 14 31
07/06/2016 652.31 115821 -388 317100 -201279 184 14 14 0.00 13 31
07/07/2016 652.16 115458 -363 317100 -201642 182 24 24 0.00 15 32
07/08/2016 652.01 115095 -363 317100 -202005 172 15 15 0.00 14 32
07/09/2016 651.85 114709 -386 317100 -202391 189 19 19 0.00 16 30
07/10/2016 651.66 114252 -457 317100 -202848 210 3 3 0.00 12 29
07/11/2016 651.48 113820 -432 317100 -203280 221 30 30 0.00 15 33
07/12/2016 651.31 113412 -408 317100 -203688 203 23 23 0.00 15 33
07/13/2016 651.15 113030 -382 317100 -204070 192 28 28 0.01 16 36
07/14/2016 650.97 112600 -430 317100 -204500 211 25 25 0.00 18 39
07/15/2016 650.77 112124 -476 317100 -204976 235 26 26 0.00 19 37
07/16/2016 650.57 111648 -476 317100 -205452 233 21 21 0.00 16 35
07/17/2016 650.39 111222 -426 317100 -205878 211 24 24 0.00 16 33
07/18/2016 650.23 110843 -379 317100 -206257 187 20 20 0.00 12 31
07/19/2016 650.07 110465 -378 317100 -206635 184 18 18 0.00 15 32
07/20/2016 649.91 110088 -377 317100 -207012 184 21 21 0.00 15 34
07/21/2016 649.74 109688 -400 317100 -207412 185 9 9 0.00 17 33
07/22/2016 649.57 109289 -399 317100 -207811 206 32 32 0.00 14 35
07/23/2016 649.37 108821 -468 317100 -208279 232 27 27 0.00 17 39
07/24/2016 649.15 108307 -514 317100 -208793 261 33 33 0.00 20 40
07/25/2016 648.93 107794 -513 317100 -209306 266 35 35 0.00 20 38
07/26/2016 648.75 107376 -- 317100 -- 231 50 -- 0.00 20 41
07/27/2016 -- -- -- -- -- -- -- -- -- -- --

Later | Latest

Warning! This data is preliminary and subject to revision.

Show NHG Map | Plot NHG Data | 1 Month NHG Data | Real-Time NHG Data | NHG Info